sensor_id;sensor_type;location;lat;lon;timestamp;pressure;altitude;pressure_sealevel;temperature;humidity
55271;BME280;41132;47.162;9.470;2023-03-21T00:00:57;96721.59;;;8.65;100.00
55271;BME280;41132;47.162;9.470;2023-03-21T00:03:23;96718.25;;;8.44;100.00
55271;BME280;41132;47.162;9.470;2023-03-21T00:05:49;96726.09;;;8.53;100.00
55271;BME280;41132;47.162;9.470;2023-03-21T00:08:20;96723.78;;;8.50;100.00
55271;BME280;41132;47.162;9.470;2023-03-21T00:10:46;96719.94;;;8.54;100.00
55271;BME280;41132;47.162;9.470;2023-03-21T00:13:13;96731.19;;;8.65;100.00
55271;BME280;41132;47.162;9.470;2023-03-21T00:15:41;96725.00;;;8.46;100.00
55271;BME280;41132;47.162;9.470;2023-03-21T00:18:19;96727.91;;;8.43;100.00
55271;BME280;41132;47.162;9.470;2023-03-21T00:20:55;96725.09;;;8.15;100.00
55271;BME280;41132;47.162;9.470;2023-03-21T00:23:23;96723.00;;;8.09;100.00
55271;BME280;41132;47.162;9.470;2023-03-21T00:25:48;96726.44;;;8.10;100.00
55271;BME280;41132;47.162;9.470;2023-03-21T00:28:13;96721.72;;;7.94;100.00
55271;BME280;41132;47.162;9.470;2023-03-21T00:30:39;96727.53;;;8.07;100.00
55271;BME280;41132;47.162;9.470;2023-03-21T00:33:04;96723.28;;;8.06;100.00
55271;BME280;41132;47.162;9.470;2023-03-21T00:35:30;96724.25;;;8.15;100.00
55271;BME280;41132;47.162;9.470;2023-03-21T00:37:55;96723.69;;;8.11;100.00
55271;BME280;41132;47.162;9.470;2023-03-21T00:40:20;96734.25;;;8.00;100.00
55271;BME280;41132;47.162;9.470;2023-03-21T00:42:46;96731.78;;;7.99;100.00
55271;BME280;41132;47.162;9.470;2023-03-21T00:45:11;96722.28;;;7.98;100.00
55271;BME280;41132;47.162;9.470;2023-03-21T00:47:37;96726.84;;;8.05;100.00
55271;BME280;41132;47.162;9.470;2023-03-21T00:50:03;96724.09;;;7.97;100.00
55271;BME280;41132;47.162;9.470;2023-03-21T00:52:29;96714.28;;;7.80;100.00
55271;BME280;41132;47.162;9.470;2023-03-21T00:54:54;96705.72;;;7.68;100.00
55271;BME280;41132;47.162;9.470;2023-03-21T00:57:20;96700.59;;;7.57;100.00
55271;BME280;41132;47.162;9.470;2023-03-21T00:59:45;96712.66;;;7.58;100.00
55271;BME280;41132;47.162;9.470;2023-03-21T01:02:10;96695.84;;;7.41;100.00
55271;BME280;41132;47.162;9.470;2023-03-21T01:04:39;96711.97;;;7.56;100.00
55271;BME280;41132;47.162;9.470;2023-03-21T01:07:04;96707.06;;;7.72;100.00
55271;BME280;41132;47.162;9.470;2023-03-21T01:09:29;96705.56;;;7.69;100.00
55271;BME280;41132;47.162;9.470;2023-03-21T01:11:55;96699.31;;;7.51;100.00
55271;BME280;41132;47.162;9.470;2023-03-21T01:14:22;96713.19;;;7.51;100.00
55271;BME280;41132;47.162;9.470;2023-03-21T01:16:48;96716.16;;;7.68;100.00
55271;BME280;41132;47.162;9.470;2023-03-21T01:19:17;96709.44;;;7.44;100.00
55271;BME280;41132;47.162;9.470;2023-03-21T01:21:43;96703.59;;;7.52;100.00
55271;BME280;41132;47.162;9.470;2023-03-21T01:24:08;96701.44;;;7.77;100.00
55271;BME280;41132;47.162;9.470;2023-03-21T01:26:35;96706.25;;;7.71;100.00
55271;BME280;41132;47.162;9.470;2023-03-21T01:29:03;96699.13;;;7.73;100.00
55271;BME280;41132;47.162;9.470;2023-03-21T01:31:28;96700.81;;;7.84;100.00
55271;BME280;41132;47.162;9.470;2023-03-21T01:33:54;96692.28;;;7.82;100.00
55271;BME280;41132;47.162;9.470;2023-03-21T01:36:21;96701.53;;;7.56;100.00
55271;BME280;41132;47.162;9.470;2023-03-21T01:38:47;96690.53;;;7.52;100.00
55271;BME280;41132;47.162;9.470;2023-03-21T01:41:22;96698.91;;;7.56;100.00
55271;BME280;41132;47.162;9.470;2023-03-21T01:43:48;96690.16;;;7.66;100.00
55271;BME280;41132;47.162;9.470;2023-03-21T01:49:22;96680.81;;;7.73;100.00
55271;BME280;41132;47.162;9.470;2023-03-21T01:51:53;96689.06;;;7.69;100.00
55271;BME280;41132;47.162;9.470;2023-03-21T01:54:24;96683.63;;;7.51;100.00
55271;BME280;41132;47.162;9.470;2023-03-21T01:56:53;96677.25;;;7.34;100.00
55271;BME280;41132;47.162;9.470;2023-03-21T01:59:26;96681.78;;;7.32;100.00
55271;BME280;41132;47.162;9.470;2023-03-21T02:01:55;96676.69;;;7.30;100.00
55271;BME280;41132;47.162;9.470;2023-03-21T02:04:22;96656.88;;;7.28;100.00
55271;BME280;41132;47.162;9.470;2023-03-21T02:06:57;96664.06;;;7.36;100.00
55271;BME280;41132;47.162;9.470;2023-03-21T02:09:28;96661.84;;;7.31;100.00
55271;BME280;41132;47.162;9.470;2023-03-21T02:11:56;96663.44;;;7.53;100.00
55271;BME280;41132;47.162;9.470;2023-03-21T02:14:21;96664.56;;;7.60;100.00
55271;BME280;41132;47.162;9.470;2023-03-21T02:24:44;96661.81;;;7.21;100.00
55271;BME280;41132;47.162;9.470;2023-03-21T02:27:16;96653.19;;;7.30;100.00
55271;BME280;41132;47.162;9.470;2023-03-21T02:43:43;96646.38;;;7.49;100.00
55271;BME280;41132;47.162;9.470;2023-03-21T02:46:15;96643.13;;;7.57;100.00
55271;BME280;41132;47.162;9.470;2023-03-21T02:48:50;96633.19;;;7.50;100.00
55271;BME280;41132;47.162;9.470;2023-03-21T02:51:20;96638.91;;;7.35;100.00
55271;BME280;41132;47.162;9.470;2023-03-21T02:53:51;96635.59;;;7.23;100.00
55271;BME280;41132;47.162;9.470;2023-03-21T02:56:18;96637.00;;;7.37;100.00
55271;BME280;41132;47.162;9.470;2023-03-21T02:58:45;96640.66;;;7.24;100.00
55271;BME280;41132;47.162;9.470;2023-03-21T03:01:11;96629.38;;;7.24;100.00
55271;BME280;41132;47.162;9.470;2023-03-21T03:03:36;96631.44;;;7.20;100.00
55271;BME280;41132;47.162;9.470;2023-03-21T03:06:07;96639.22;;;7.10;100.00
55271;BME280;41132;47.162;9.470;2023-03-21T03:11:42;96624.81;;;7.06;100.00
55271;BME280;41132;47.162;9.470;2023-03-21T03:14:36;96635.47;;;7.03;100.00
55271;BME280;41132;47.162;9.470;2023-03-21T03:22:42;96630.75;;;6.87;100.00
55271;BME280;41132;47.162;9.470;2023-03-21T03:25:13;96628.81;;;6.89;100.00
55271;BME280;41132;47.162;9.470;2023-03-21T03:27:43;96623.31;;;7.14;100.00
55271;BME280;41132;47.162;9.470;2023-03-21T03:30:11;96620.13;;;7.10;100.00
55271;BME280;41132;47.162;9.470;2023-03-21T03:32:44;96617.69;;;6.87;100.00
55271;BME280;41132;47.162;9.470;2023-03-21T03:35:12;96612.63;;;6.65;100.00
55271;BME280;41132;47.162;9.470;2023-03-21T03:37:40;96623.38;;;6.72;100.00
55271;BME280;41132;47.162;9.470;2023-03-21T03:40:10;96625.50;;;6.87;100.00
55271;BME280;41132;47.162;9.470;2023-03-21T03:42:46;96629.78;;;6.88;100.00
55271;BME280;41132;47.162;9.470;2023-03-21T03:45:14;96630.34;;;6.92;100.00
55271;BME280;41132;47.162;9.470;2023-03-21T03:47:53;96628.09;;;6.78;100.00
55271;BME280;41132;47.162;9.470;2023-03-21T03:53:03;96628.72;;;6.49;100.00
55271;BME280;41132;47.162;9.470;2023-03-21T03:55:30;96633.88;;;6.39;100.00
55271;BME280;41132;47.162;9.470;2023-03-21T03:57:59;96619.00;;;6.30;100.00
55271;BME280;41132;47.162;9.470;2023-03-21T04:00:24;96628.44;;;6.31;100.00
55271;BME280;41132;47.162;9.470;2023-03-21T04:02:51;96631.81;;;6.22;100.00
55271;BME280;41132;47.162;9.470;2023-03-21T04:05:16;96640.94;;;6.27;100.00
55271;BME280;41132;47.162;9.470;2023-03-21T04:07:46;96633.56;;;6.33;100.00
55271;BME280;41132;47.162;9.470;2023-03-21T04:10:12;96625.47;;;6.36;100.00
55271;BME280;41132;47.162;9.470;2023-03-21T04:12:38;96634.91;;;6.48;100.00
55271;BME280;41132;47.162;9.470;2023-03-21T04:15:04;96634.31;;;6.44;100.00
55271;BME280;41132;47.162;9.470;2023-03-21T04:17:29;96637.06;;;6.43;100.00
55271;BME280;41132;47.162;9.470;2023-03-21T04:19:57;96635.16;;;6.45;100.00
55271;BME280;41132;47.162;9.470;2023-03-21T04:22:22;96625.22;;;6.39;100.00
55271;BME280;41132;47.162;9.470;2023-03-21T04:24:48;96636.00;;;6.45;100.00
55271;BME280;41132;47.162;9.470;2023-03-21T04:27:14;96642.72;;;6.48;100.00
55271;BME280;41132;47.162;9.470;2023-03-21T04:29:40;96631.16;;;6.41;100.00
55271;BME280;41132;47.162;9.470;2023-03-21T04:32:05;96629.81;;;6.46;100.00
55271;BME280;41132;47.162;9.470;2023-03-21T04:34:41;96642.00;;;6.67;100.00
55271;BME280;41132;47.162;9.470;2023-03-21T04:37:08;96638.66;;;6.55;100.00
55271;BME280;41132;47.162;9.470;2023-03-21T04:39:36;96632.72;;;6.53;100.00
55271;BME280;41132;47.162;9.470;2023-03-21T04:42:02;96630.81;;;6.55;100.00
55271;BME280;41132;47.162;9.470;2023-03-21T04:44:28;96629.50;;;6.61;100.00
55271;BME280;41132;47.162;9.470;2023-03-21T04:46:53;96635.97;;;6.66;100.00
55271;BME280;41132;47.162;9.470;2023-03-21T04:49:19;96624.56;;;6.67;100.00
55271;BME280;41132;47.162;9.470;2023-03-21T04:51:45;96636.91;;;6.44;100.00
55271;BME280;41132;47.162;9.470;2023-03-21T04:54:10;96633.81;;;6.51;100.00
55271;BME280;41132;47.162;9.470;2023-03-21T04:56:37;96633.00;;;6.50;100.00
55271;BME280;41132;47.162;9.470;2023-03-21T04:59:12;96637.50;;;6.48;100.00
55271;BME280;41132;47.162;9.470;2023-03-21T05:01:37;96635.06;;;6.56;100.00
55271;BME280;41132;47.162;9.470;2023-03-21T05:04:05;96623.66;;;6.47;100.00
55271;BME280;41132;47.162;9.470;2023-03-21T05:06:31;96633.00;;;6.71;100.00
55271;BME280;41132;47.162;9.470;2023-03-21T05:08:58;96618.59;;;6.56;100.00
55271;BME280;41132;47.162;9.470;2023-03-21T05:11:28;96636.25;;;6.63;100.00
55271;BME280;41132;47.162;9.470;2023-03-21T05:13:59;96622.75;;;6.58;100.00
55271;BME280;41132;47.162;9.470;2023-03-21T05:16:25;96634.25;;;6.98;100.00
55271;BME280;41132;47.162;9.470;2023-03-21T05:18:55;96632.56;;;6.97;100.00
55271;BME280;41132;47.162;9.470;2023-03-21T05:21:22;96646.00;;;6.92;100.00
55271;BME280;41132;47.162;9.470;2023-03-21T05:23:47;96637.16;;;6.83;100.00
55271;BME280;41132;47.162;9.470;2023-03-21T05:26:20;96638.13;;;6.82;100.00
55271;BME280;41132;47.162;9.470;2023-03-21T05:28:46;96629.22;;;6.85;100.00
55271;BME280;41132;47.162;9.470;2023-03-21T05:31:13;96640.22;;;6.88;100.00
55271;BME280;41132;47.162;9.470;2023-03-21T05:33:43;96630.75;;;6.87;100.00
55271;BME280;41132;47.162;9.470;2023-03-21T05:36:10;96633.78;;;6.93;100.00
55271;BME280;41132;47.162;9.470;2023-03-21T05:38:35;96636.25;;;6.94;100.00
55271;BME280;41132;47.162;9.470;2023-03-21T05:41:01;96629.84;;;6.98;100.00
55271;BME280;41132;47.162;9.470;2023-03-21T05:43:26;96635.88;;;6.99;100.00
55271;BME280;41132;47.162;9.470;2023-03-21T05:45:51;96631.88;;;6.95;100.00
55271;BME280;41132;47.162;9.470;2023-03-21T05:48:17;96634.88;;;6.90;100.00
55271;BME280;41132;47.162;9.470;2023-03-21T05:50:43;96644.59;;;6.88;100.00
55271;BME280;41132;47.162;9.470;2023-03-21T05:53:09;96644.38;;;6.91;100.00
55271;BME280;41132;47.162;9.470;2023-03-21T05:55:35;96640.66;;;6.94;100.00
55271;BME280;41132;47.162;9.470;2023-03-21T05:58:00;96629.72;;;6.79;100.00
55271;BME280;41132;47.162;9.470;2023-03-21T06:00:26;96631.78;;;6.75;100.00
55271;BME280;41132;47.162;9.470;2023-03-21T06:02:51;96634.56;;;6.83;100.00
55271;BME280;41132;47.162;9.470;2023-03-21T06:05:17;96617.66;;;6.78;100.00
55271;BME280;41132;47.162;9.470;2023-03-21T06:07:42;96637.03;;;6.85;100.00
55271;BME280;41132;47.162;9.470;2023-03-21T06:10:08;96640.84;;;7.02;100.00
55271;BME280;41132;47.162;9.470;2023-03-21T06:12:34;96632.06;;;7.03;100.00
55271;BME280;41132;47.162;9.470;2023-03-21T06:14:59;96630.19;;;7.15;100.00
55271;BME280;41132;47.162;9.470;2023-03-21T06:17:25;96641.78;;;7.01;100.00
55271;BME280;41132;47.162;9.470;2023-03-21T06:19:51;96611.28;;;7.01;100.00
55271;BME280;41132;47.162;9.470;2023-03-21T06:22:16;96640.91;;;7.11;100.00
55271;BME280;41132;47.162;9.470;2023-03-21T06:24:42;96636.50;;;7.12;100.00
55271;BME280;41132;47.162;9.470;2023-03-21T06:27:07;96640.41;;;7.27;100.00
55271;BME280;41132;47.162;9.470;2023-03-21T06:29:32;96633.56;;;7.36;100.00
55271;BME280;41132;47.162;9.470;2023-03-21T06:31:58;96633.41;;;7.28;100.00
55271;BME280;41132;47.162;9.470;2023-03-21T06:34:23;96640.38;;;7.18;100.00
55271;BME280;41132;47.162;9.470;2023-03-21T06:36:49;96642.50;;;7.34;100.00
55271;BME280;41132;47.162;9.470;2023-03-21T06:39:16;96640.66;;;7.24;100.00
55271;BME280;41132;47.162;9.470;2023-03-21T06:41:41;96644.53;;;7.30;100.00
55271;BME280;41132;47.162;9.470;2023-03-21T06:44:07;96648.84;;;7.41;100.00
55271;BME280;41132;47.162;9.470;2023-03-21T06:46:32;96640.22;;;7.60;100.00
55271;BME280;41132;47.162;9.470;2023-03-21T06:48:58;96637.81;;;7.87;100.00
55271;BME280;41132;47.162;9.470;2023-03-21T06:51:23;96638.38;;;8.01;100.00
55271;BME280;41132;47.162;9.470;2023-03-21T06:53:48;96644.03;;;8.15;100.00
55271;BME280;41132;47.162;9.470;2023-03-21T06:56:14;96636.06;;;8.46;100.00
55271;BME280;41132;47.162;9.470;2023-03-21T06:58:40;96625.59;;;8.56;100.00
55271;BME280;41132;47.162;9.470;2023-03-21T07:01:06;96636.44;;;8.81;100.00
55271;BME280;41132;47.162;9.470;2023-03-21T07:03:32;96634.50;;;8.83;100.00
55271;BME280;41132;47.162;9.470;2023-03-21T07:06:03;96639.59;;;8.84;100.00
55271;BME280;41132;47.162;9.470;2023-03-21T07:08:28;96632.97;;;8.90;100.00
55271;BME280;41132;47.162;9.470;2023-03-21T07:10:55;96637.09;;;8.92;96.85
55271;BME280;41132;47.162;9.470;2023-03-21T07:13:21;96630.47;;;8.98;95.46
55271;BME280;41132;47.162;9.470;2023-03-21T07:15:46;96621.97;;;8.86;98.85
55271;BME280;41132;47.162;9.470;2023-03-21T07:18:12;96639.75;;;8.73;95.74
55271;BME280;41132;47.162;9.470;2023-03-21T07:20:37;96642.09;;;8.76;94.57
55271;BME280;41132;47.162;9.470;2023-03-21T07:23:03;96632.44;;;8.86;95.90
55271;BME280;41132;47.162;9.470;2023-03-21T07:25:28;96624.72;;;8.85;95.34
55271;BME280;41132;47.162;9.470;2023-03-21T07:27:53;96631.59;;;8.95;94.86
55271;BME280;41132;47.162;9.470;2023-03-21T07:30:20;96635.03;;;8.96;95.13
55271;BME280;41132;47.162;9.470;2023-03-21T07:32:45;96632.53;;;8.94;98.99
55271;BME280;41132;47.162;9.470;2023-03-21T07:35:13;96621.38;;;8.92;92.04
55271;BME280;41132;47.162;9.470;2023-03-21T07:37:39;96627.03;;;8.97;92.66
55271;BME280;41132;47.162;9.470;2023-03-21T07:40:06;96623.44;;;8.98;96.21
55271;BME280;41132;47.162;9.470;2023-03-21T07:42:38;96620.44;;;8.93;100.00
55271;BME280;41132;47.162;9.470;2023-03-21T07:45:03;96622.47;;;8.99;99.36
55271;BME280;41132;47.162;9.470;2023-03-21T07:47:30;96613.84;;;9.27;97.87
55271;BME280;41132;47.162;9.470;2023-03-21T07:49:56;96626.00;;;9.46;90.45
55271;BME280;41132;47.162;9.470;2023-03-21T07:52:21;96610.84;;;9.49;92.36
55271;BME280;41132;47.162;9.470;2023-03-21T07:54:46;96608.41;;;9.66;92.51
55271;BME280;41132;47.162;9.470;2023-03-21T07:57:12;96612.38;;;9.88;92.67
55271;BME280;41132;47.162;9.470;2023-03-21T07:59:37;96623.25;;;9.93;88.60
55271;BME280;41132;47.162;9.470;2023-03-21T08:02:02;96628.06;;;10.15;85.45
55271;BME280;41132;47.162;9.470;2023-03-21T08:04:28;96602.78;;;9.96;83.61
55271;BME280;41132;47.162;9.470;2023-03-21T08:06:53;96611.88;;;10.02;88.85
55271;BME280;41132;47.162;9.470;2023-03-21T08:09:19;96623.28;;;10.29;86.56
55271;BME280;41132;47.162;9.470;2023-03-21T08:11:45;96599.28;;;10.23;84.52
55271;BME280;41132;47.162;9.470;2023-03-21T08:14:10;96612.78;;;10.47;83.00
55271;BME280;41132;47.162;9.470;2023-03-21T08:16:35;96613.22;;;10.42;86.23
55271;BME280;41132;47.162;9.470;2023-03-21T08:19:01;96609.09;;;10.57;80.86
55271;BME280;41132;47.162;9.470;2023-03-21T08:21:26;96592.63;;;10.47;86.58
55271;BME280;41132;47.162;9.470;2023-03-21T08:23:52;96594.44;;;10.73;91.05
55271;BME280;41132;47.162;9.470;2023-03-21T08:26:18;96611.34;;;10.78;92.45
55271;BME280;41132;47.162;9.470;2023-03-21T08:28:44;96606.00;;;11.14;90.28
55271;BME280;41132;47.162;9.470;2023-03-21T08:31:11;96587.41;;;11.07;87.27
55271;BME280;41132;47.162;9.470;2023-03-21T08:33:37;96598.91;;;11.49;73.71
55271;BME280;41132;47.162;9.470;2023-03-21T08:36:04;96606.41;;;11.27;78.06
55271;BME280;41132;47.162;9.470;2023-03-21T08:38:30;96607.22;;;11.28;84.29
55271;BME280;41132;47.162;9.470;2023-03-21T08:40:58;96608.75;;;11.04;88.63
55271;BME280;41132;47.162;9.470;2023-03-21T08:43:25;96603.66;;;10.77;92.29
55271;BME280;41132;47.162;9.470;2023-03-21T08:45:51;96601.34;;;11.00;88.40
55271;BME280;41132;47.162;9.470;2023-03-21T08:48:17;96599.78;;;10.89;86.62
55271;BME280;41132;47.162;9.470;2023-03-21T08:50:43;96595.97;;;10.57;86.40
55271;BME280;41132;47.162;9.470;2023-03-21T08:53:08;96585.53;;;10.65;82.88
55271;BME280;41132;47.162;9.470;2023-03-21T08:55:34;96597.00;;;10.91;94.33
55271;BME280;41132;47.162;9.470;2023-03-21T08:57:59;96601.06;;;10.85;92.15
55271;BME280;41132;47.162;9.470;2023-03-21T09:00:25;96592.44;;;10.93;94.48
55271;BME280;41132;47.162;9.470;2023-03-21T09:02:51;96587.47;;;11.24;92.96
55271;BME280;41132;47.162;9.470;2023-03-21T09:05:18;96599.31;;;11.28;89.85
55271;BME280;41132;47.162;9.470;2023-03-21T09:07:44;96589.88;;;11.43;92.54
55271;BME280;41132;47.162;9.470;2023-03-21T09:10:13;96586.31;;;11.61;90.00
55271;BME280;41132;47.162;9.470;2023-03-21T09:12:39;96591.34;;;11.88;89.44
55271;BME280;41132;47.162;9.470;2023-03-21T09:15:06;96584.47;;;12.53;79.04
55271;BME280;41132;47.162;9.470;2023-03-21T09:17:32;96583.84;;;12.43;84.16
55271;BME280;41132;47.162;9.470;2023-03-21T09:19:57;96576.28;;;13.12;73.02
55271;BME280;41132;47.162;9.470;2023-03-21T09:22:25;96572.28;;;13.41;68.46
55271;BME280;41132;47.162;9.470;2023-03-21T09:24:51;96582.38;;;13.68;72.60
55271;BME280;41132;47.162;9.470;2023-03-21T09:27:17;96574.16;;;13.94;69.50
55271;BME280;41132;47.162;9.470;2023-03-21T09:29:47;96573.97;;;13.65;72.08
55271;BME280;41132;47.162;9.470;2023-03-21T09:32:13;96568.75;;;13.01;72.02
55271;BME280;41132;47.162;9.470;2023-03-21T09:34:38;96568.09;;;12.99;68.75
55271;BME280;41132;47.162;9.470;2023-03-21T09:37:08;96566.31;;;12.99;70.35
55271;BME280;41132;47.162;9.470;2023-03-21T09:39:40;96567.31;;;13.77;73.78
55271;BME280;41132;47.162;9.470;2023-03-21T09:44:54;96563.22;;;14.20;70.37
55271;BME280;41132;47.162;9.470;2023-03-21T09:47:28;96556.38;;;13.88;66.72
55271;BME280;41132;47.162;9.470;2023-03-21T09:50:03;96558.34;;;13.86;64.38
55271;BME280;41132;47.162;9.470;2023-03-21T09:52:43;96546.81;;;14.33;65.32
55271;BME280;41132;47.162;9.470;2023-03-21T09:55:18;96547.34;;;14.29;67.74
55271;BME280;41132;47.162;9.470;2023-03-21T09:57:48;96546.28;;;14.38;69.76
55271;BME280;41132;47.162;9.470;2023-03-21T10:00:26;96539.53;;;14.88;61.56
55271;BME280;41132;47.162;9.470;2023-03-21T10:02:54;96537.94;;;15.53;55.60
55271;BME280;41132;47.162;9.470;2023-03-21T10:05:27;96543.63;;;15.06;59.96
55271;BME280;41132;47.162;9.470;2023-03-21T10:08:01;96539.63;;;15.10;63.35
55271;BME280;41132;47.162;9.470;2023-03-21T10:10:34;96532.03;;;15.36;65.38
55271;BME280;41132;47.162;9.470;2023-03-21T10:13:02;96507.44;;;14.61;63.68
55271;BME280;41132;47.162;9.470;2023-03-21T10:15:29;96523.19;;;14.55;61.94
55271;BME280;41132;47.162;9.470;2023-03-21T10:18:02;96527.88;;;14.68;66.20
55271;BME280;41132;47.162;9.470;2023-03-21T10:20:36;96522.69;;;14.36;66.82
55271;BME280;41132;47.162;9.470;2023-03-21T10:23:10;96512.84;;;14.98;61.98
55271;BME280;41132;47.162;9.470;2023-03-21T10:25:42;96519.47;;;14.64;58.73
55271;BME280;41132;47.162;9.470;2023-03-21T10:28:14;96510.84;;;14.70;60.09
55271;BME280;41132;47.162;9.470;2023-03-21T10:30:44;96511.44;;;15.17;62.79
55271;BME280;41132;47.162;9.470;2023-03-21T10:33:14;96513.94;;;14.89;59.19
55271;BME280;41132;47.162;9.470;2023-03-21T10:35:44;96512.19;;;15.98;52.41
55271;BME280;41132;47.162;9.470;2023-03-21T10:38:16;96508.38;;;15.13;56.61
55271;BME280;41132;47.162;9.470;2023-03-21T10:40:43;96503.97;;;15.35;54.56
55271;BME280;41132;47.162;9.470;2023-03-21T10:43:35;96500.31;;;15.21;56.98
55271;BME280;41132;47.162;9.470;2023-03-21T10:46:10;96502.16;;;15.21;62.07
55271;BME280;41132;47.162;9.470;2023-03-21T10:48:39;96487.78;;;14.79;61.32
55271;BME280;41132;47.162;9.470;2023-03-21T10:51:07;96488.69;;;15.01;60.97
55271;BME280;41132;47.162;9.470;2023-03-21T10:53:45;96483.84;;;15.04;56.29
55271;BME280;41132;47.162;9.470;2023-03-21T10:56:14;96482.13;;;15.12;60.87
55271;BME280;41132;47.162;9.470;2023-03-21T10:58:49;96478.13;;;14.86;64.26
55271;BME280;41132;47.162;9.470;2023-03-21T11:01:32;96480.06;;;14.92;63.24
55271;BME280;41132;47.162;9.470;2023-03-21T11:04:08;96474.38;;;14.80;66.64
55271;BME280;41132;47.162;9.470;2023-03-21T11:06:40;96482.25;;;14.36;64.36
55271;BME280;41132;47.162;9.470;2023-03-21T11:09:07;96482.06;;;14.23;68.46
55271;BME280;41132;47.162;9.470;2023-03-21T11:11:39;96472.03;;;14.33;65.40
55271;BME280;41132;47.162;9.470;2023-03-21T11:14:07;96463.41;;;14.24;66.95
55271;BME280;41132;47.162;9.470;2023-03-21T11:16:43;96471.78;;;14.28;69.29
55271;BME280;41132;47.162;9.470;2023-03-21T11:19:35;96482.88;;;14.23;65.23
55271;BME280;41132;47.162;9.470;2023-03-21T11:22:04;96479.66;;;14.13;65.96
55271;BME280;41132;47.162;9.470;2023-03-21T11:24:32;96479.63;;;14.36;66.03
55271;BME280;41132;47.162;9.470;2023-03-21T11:26:57;96484.84;;;14.21;60.95
55271;BME280;41132;47.162;9.470;2023-03-21T11:29:35;96478.13;;;14.18;60.76
55271;BME280;41132;47.162;9.470;2023-03-21T11:34:47;96471.75;;;14.13;65.44
55271;BME280;41132;47.162;9.470;2023-03-21T11:37:30;96476.28;;;14.04;62.17
55271;BME280;41132;47.162;9.470;2023-03-21T11:40:07;96477.63;;;14.00;63.31
55271;BME280;41132;47.162;9.470;2023-03-21T11:42:46;96474.78;;;14.25;64.97
55271;BME280;41132;47.162;9.470;2023-03-21T11:45:15;96469.34;;;14.41;62.16
55271;BME280;41132;47.162;9.470;2023-03-21T11:47:42;96459.25;;;14.45;61.17
55271;BME280;41132;47.162;9.470;2023-03-21T11:50:16;96463.28;;;14.70;65.65
55271;BME280;41132;47.162;9.470;2023-03-21T11:52:57;96459.84;;;14.70;64.94
55271;BME280;41132;47.162;9.470;2023-03-21T11:55:31;96461.38;;;14.64;67.46
55271;BME280;41132;47.162;9.470;2023-03-21T12:01:07;96446.28;;;14.35;70.10
55271;BME280;41132;47.162;9.470;2023-03-21T12:04:06;96450.47;;;14.29;67.14
55271;BME280;41132;47.162;9.470;2023-03-21T12:06:36;96444.13;;;14.38;69.41
55271;BME280;41132;47.162;9.470;2023-03-21T12:09:24;96441.59;;;14.60;66.05
55271;BME280;41132;47.162;9.470;2023-03-21T12:15:09;96431.34;;;14.27;69.61
55271;BME280;41132;47.162;9.470;2023-03-21T12:20:10;96431.84;;;14.08;65.98
55271;BME280;41132;47.162;9.470;2023-03-21T12:25:38;96433.72;;;14.37;66.81
55271;BME280;41132;47.162;9.470;2023-03-21T12:36:35;96427.38;;;14.31;65.20
55271;BME280;41132;47.162;9.470;2023-03-21T12:39:30;96424.72;;;14.46;67.72
55271;BME280;41132;47.162;9.470;2023-03-21T12:44:44;96415.44;;;14.35;67.86
55271;BME280;41132;47.162;9.470;2023-03-21T12:47:28;96412.28;;;14.55;68.02
55271;BME280;41132;47.162;9.470;2023-03-21T12:50:16;96411.09;;;14.72;67.85
55271;BME280;41132;47.162;9.470;2023-03-21T12:52:46;96415.91;;;14.69;69.62
55271;BME280;41132;47.162;9.470;2023-03-21T12:55:20;96412.63;;;14.52;70.33
55271;BME280;41132;47.162;9.470;2023-03-21T12:57:57;96407.34;;;14.52;69.49
55271;BME280;41132;47.162;9.470;2023-03-21T13:00:39;96404.00;;;14.58;69.99
55271;BME280;41132;47.162;9.470;2023-03-21T13:03:13;96409.34;;;14.50;68.31
55271;BME280;41132;47.162;9.470;2023-03-21T13:05:47;96409.50;;;14.48;67.96
55271;BME280;41132;47.162;9.470;2023-03-21T13:10:50;96400.06;;;14.54;66.70
55271;BME280;41132;47.162;9.470;2023-03-21T13:16:21;96397.06;;;14.57;67.49
55271;BME280;41132;47.162;9.470;2023-03-21T13:24:19;96390.34;;;14.54;70.51
55271;BME280;41132;47.162;9.470;2023-03-21T13:26:48;96387.13;;;14.44;69.49
55271;BME280;41132;47.162;9.470;2023-03-21T13:29:24;96390.56;;;14.30;70.74
55271;BME280;41132;47.162;9.470;2023-03-21T13:31:52;96387.56;;;14.33;71.91
55271;BME280;41132;47.162;9.470;2023-03-21T13:34:22;96381.56;;;14.39;70.70
55271;BME280;41132;47.162;9.470;2023-03-21T13:36:50;96379.94;;;14.38;72.51
55271;BME280;41132;47.162;9.470;2023-03-21T13:39:24;96373.38;;;14.34;71.47
55271;BME280;41132;47.162;9.470;2023-03-21T13:41:51;96374.03;;;14.36;71.58
55271;BME280;41132;47.162;9.470;2023-03-21T13:46:55;96379.75;;;14.25;71.49
55271;BME280;41132;47.162;9.470;2023-03-21T13:49:44;96370.72;;;14.19;73.14
55271;BME280;41132;47.162;9.470;2023-03-21T13:52:29;96364.28;;;14.22;71.57
55271;BME280;41132;47.162;9.470;2023-03-21T13:54:56;96364.34;;;14.28;71.51
55271;BME280;41132;47.162;9.470;2023-03-21T14:00:28;96365.75;;;14.24;69.34
55271;BME280;41132;47.162;9.470;2023-03-21T14:05:21;96355.44;;;14.14;69.02
55271;BME280;41132;47.162;9.470;2023-03-21T14:07:49;96359.09;;;14.13;69.06
55271;BME280;41132;47.162;9.470;2023-03-21T14:10:32;96353.16;;;14.11;69.37
55271;BME280;41132;47.162;9.470;2023-03-21T14:12:58;96346.69;;;14.14;69.42
55271;BME280;41132;47.162;9.470;2023-03-21T14:15:29;96353.25;;;14.18;70.08
55271;BME280;41132;47.162;9.470;2023-03-21T14:17:58;96354.44;;;14.15;69.45
55271;BME280;41132;47.162;9.470;2023-03-21T14:20:30;96348.63;;;14.20;65.78
55271;BME280;41132;47.162;9.470;2023-03-21T14:22:56;96348.69;;;14.12;68.81
55271;BME280;41132;47.162;9.470;2023-03-21T14:25:23;96355.88;;;14.03;71.19
55271;BME280;41132;47.162;9.470;2023-03-21T14:27:53;96345.97;;;13.90;70.75
55271;BME280;41132;47.162;9.470;2023-03-21T14:30:24;96345.97;;;13.90;71.59
55271;BME280;41132;47.162;9.470;2023-03-21T14:32:53;96345.44;;;13.95;71.42